createdAt,value
2023-05-04T00:01:48.860Z,4.72
2023-05-04T00:06:50.657Z,6.75
2023-05-04T00:11:52.422Z,4.72
2023-05-04T00:16:54.011Z,5.65
2023-05-04T00:21:55.833Z,5.82
2023-05-04T00:26:57.460Z,5.18
2023-05-04T00:31:59.232Z,5.50
2023-05-04T00:37:01.308Z,5.65
2023-05-04T00:42:03.219Z,4.93
2023-05-04T00:47:04.994Z,6.95
2023-05-04T00:52:07.630Z,6.38
2023-05-04T00:57:09.311Z,4.90
2023-05-04T01:02:11.112Z,5.55
2023-05-04T01:07:22.930Z,6.03
2023-05-04T01:12:45.755Z,6.50
2023-05-04T01:17:48.075Z,5.15
2023-05-04T01:22:49.738Z,6.85
2023-05-04T01:27:54.181Z,6.60
2023-05-04T01:32:58.243Z,9.10
2023-05-04T01:37:59.952Z,8.25
2023-05-04T01:43:01.678Z,5.93
2023-05-04T01:48:03.420Z,14.27
2023-05-04T01:53:07.139Z,8.27
2023-05-04T01:58:08.736Z,5.82
2023-05-04T02:03:10.705Z,7.75
2023-05-04T02:08:12.480Z,9.77
2023-05-04T02:13:14.195Z,9.63
2023-05-04T02:18:15.904Z,8.02
2023-05-04T02:23:17.496Z,8.30
2023-05-04T02:28:19.101Z,6.85
2023-05-04T02:33:20.726Z,8.98
2023-05-04T02:38:22.984Z,9.43
2023-05-04T02:43:24.745Z,8.88
2023-05-04T02:48:27.435Z,7.75
2023-05-04T02:53:29.093Z,10.48
2023-05-04T02:58:30.937Z,8.18
2023-05-04T03:03:32.716Z,8.43
2023-05-04T03:08:36.087Z,7.13
2023-05-04T03:13:37.852Z,8.02
2023-05-04T03:23:59.172Z,8.35
2023-05-04T03:29:00.976Z,7.68
2023-05-04T03:34:03.320Z,9.10
2023-05-04T03:39:05.299Z,7.90
2023-05-04T03:44:07.113Z,8.63
2023-05-04T03:49:09.997Z,8.73
2023-05-04T03:54:12.336Z,9.07
2023-05-04T03:59:14.046Z,21.85
2023-05-04T04:04:16.060Z,8.90
2023-05-04T04:09:18.137Z,9.10
2023-05-04T04:14:20.021Z,10.35
2023-05-04T04:19:21.602Z,8.57
2023-05-04T04:24:23.239Z,11.50
2023-05-04T04:29:25.043Z,13.18
2023-05-04T04:34:27.183Z,13.43
2023-05-04T04:39:28.813Z,11.45
2023-05-04T04:44:30.459Z,11.25
2023-05-04T04:49:32.280Z,10.73
2023-05-04T04:54:33.965Z,9.18
2023-05-04T04:59:35.789Z,9.57
2023-05-04T05:04:40.121Z,12.05
2023-05-04T05:09:42.892Z,8.45
2023-05-04T05:14:45.731Z,13.18
2023-05-04T05:19:48.115Z,7.65
2023-05-04T05:24:49.799Z,7.18
2023-05-04T05:29:51.463Z,6.13
2023-05-04T05:34:53.486Z,9.88
2023-05-04T05:39:55.258Z,7.38
2023-05-04T05:44:56.882Z,6.93
2023-05-04T05:49:58.475Z,11.25
2023-05-04T05:55:02.464Z,11.18
2023-05-04T06:00:06.111Z,9.88
2023-05-04T06:05:13.956Z,8.13
2023-05-04T06:10:16.532Z,15.45
2023-05-04T06:15:18.525Z,6.30
2023-05-04T06:20:20.311Z,6.70
2023-05-04T06:25:22.174Z,4.05
2023-05-04T06:30:24.477Z,5.15
2023-05-04T06:35:26.319Z,7.30
2023-05-04T06:40:27.985Z,4.75
2023-05-04T06:45:29.878Z,7.20
2023-05-04T06:50:33.422Z,4.10
2023-05-04T06:55:36.257Z,8.55
2023-05-04T07:00:37.930Z,7.75
2023-05-04T07:05:39.686Z,5.88
2023-05-04T07:10:41.378Z,5.53
2023-05-04T07:15:43.125Z,6.85
2023-05-04T07:20:44.841Z,8.93
2023-05-04T07:25:46.536Z,9.90
2023-05-04T07:30:48.185Z,5.10
2023-05-04T07:35:49.821Z,5.47
2023-05-04T07:40:51.437Z,7.63
2023-05-04T07:45:53.853Z,3.92
2023-05-04T07:50:55.562Z,4.15
2023-05-04T07:55:57.511Z,4.97
2023-05-04T08:00:59.112Z,4.82
2023-05-04T08:06:00.741Z,7.95
2023-05-04T08:11:15.831Z,6.63
2023-05-04T08:16:20.740Z,8.57
2023-05-04T08:21:22.497Z,3.67
2023-05-04T08:26:24.454Z,6.43
2023-05-04T08:31:26.111Z,2.85
2023-05-04T08:36:27.886Z,4.57
2023-05-04T08:41:30.637Z,4.90
2023-05-04T08:46:33.309Z,4.25
2023-05-04T08:51:37.964Z,4.57
2023-05-04T08:56:40.363Z,4.63
2023-05-04T09:01:42.127Z,4.72
2023-05-04T09:06:44.011Z,3.65
2023-05-04T09:11:46.290Z,6.85
2023-05-04T09:16:47.957Z,4.63
2023-05-04T09:21:52.152Z,5.13
2023-05-04T09:26:53.796Z,3.67
2023-05-04T09:31:55.510Z,6.70
2023-05-04T09:37:01.876Z,3.47
2023-05-04T09:42:05.739Z,3.70
2023-05-04T09:47:08.427Z,4.22
2023-05-04T09:52:11.606Z,6.55
2023-05-04T09:57:18.008Z,3.58
2023-05-04T10:07:26.095Z,4.07
2023-05-04T10:12:28.031Z,2.88
2023-05-04T10:17:51.248Z,2.50
2023-05-04T10:23:25.144Z,2.50
2023-05-04T10:29:06.236Z,3.08
2023-05-04T10:34:08.332Z,5.68
2023-05-04T10:39:23.870Z,2.60
2023-05-04T10:44:25.983Z,4.23
2023-05-04T10:49:28.067Z,4.28
2023-05-04T10:54:29.771Z,4.03
2023-05-04T10:59:32.382Z,4.90
2023-05-04T11:04:34.813Z,3.03
2023-05-04T11:09:39.085Z,5.85
2023-05-04T11:14:43.120Z,2.83
2023-05-04T11:19:49.653Z,2.88
2023-05-04T11:30:00.983Z,6.70
2023-05-04T11:35:05.237Z,3.83
2023-05-04T11:40:27.753Z,3.00
2023-05-04T11:45:37.625Z,4.78
2023-05-04T11:50:39.754Z,5.30
2023-05-04T11:55:42.013Z,3.35
2023-05-04T12:00:45.656Z,3.80
2023-05-04T12:05:49.212Z,2.75
2023-05-04T12:10:51.048Z,3.25
2023-05-04T12:15:52.685Z,2.90
2023-05-04T12:20:54.854Z,7.72
2023-05-04T12:25:58.339Z,4.47
2023-05-04T12:31:00.819Z,5.72
2023-05-04T12:36:04.578Z,3.70
2023-05-04T12:41:07.447Z,4.22
2023-05-04T12:46:09.203Z,3.83
2023-05-04T12:51:10.925Z,3.72
2023-05-04T12:56:12.487Z,2.05
2023-05-04T13:01:14.152Z,4.25
2023-05-04T13:06:15.949Z,3.20
2023-05-04T13:11:19.625Z,3.08
2023-05-04T13:16:21.424Z,2.83
2023-05-04T13:21:23.192Z,3.58
2023-05-04T13:26:24.863Z,2.33
2023-05-04T13:31:26.801Z,2.30
2023-05-04T13:36:28.508Z,3.30
2023-05-04T13:41:30.953Z,4.68
2023-05-04T13:46:34.407Z,5.32
2023-05-04T13:51:37.662Z,3.40
2023-05-04T13:56:39.255Z,5.53
2023-05-04T14:01:41.410Z,2.25
2023-05-04T14:06:43.194Z,3.88
2023-05-04T14:11:46.370Z,3.65
2023-05-04T14:16:48.011Z,5.43
2023-05-04T14:21:49.674Z,4.55
2023-05-04T14:26:51.410Z,3.92
2023-05-04T14:31:53.768Z,4.50
2023-05-04T14:36:55.462Z,3.08
2023-05-04T14:41:58.039Z,2.75
2023-05-04T14:46:59.698Z,3.40
2023-05-04T14:52:01.350Z,2.75
2023-05-04T14:57:03.311Z,3.97
2023-05-04T15:02:06.502Z,3.08
2023-05-04T15:07:09.531Z,3.53
2023-05-04T15:12:11.646Z,3.72
2023-05-04T15:17:13.237Z,3.05
2023-05-04T15:22:14.960Z,2.83
2023-05-04T15:27:16.587Z,4.82
2023-05-04T15:32:18.290Z,2.78
2023-05-04T15:37:19.920Z,3.13
2023-05-04T15:42:21.679Z,9.20
2023-05-04T15:47:23.763Z,3.30
2023-05-04T15:52:25.630Z,2.85
2023-05-04T15:57:27.413Z,4.03
2023-05-04T16:02:29.464Z,4.22
2023-05-04T16:07:31.192Z,2.03
2023-05-04T16:12:32.778Z,5.65
2023-05-04T16:17:35.500Z,3.60
2023-05-04T16:22:37.408Z,4.82
2023-05-04T16:27:39.174Z,4.35
2023-05-04T16:32:41.042Z,3.85
2023-05-04T16:37:42.734Z,2.15
2023-05-04T16:42:45.666Z,2.10
2023-05-04T16:47:47.401Z,3.90
2023-05-04T16:52:49.035Z,2.80
2023-05-04T16:57:50.707Z,2.15
2023-05-04T17:02:53.142Z,2.90
2023-05-04T17:07:54.920Z,4.22
2023-05-04T17:12:56.592Z,4.03
2023-05-04T17:17:58.407Z,4.03
2023-05-04T17:23:00.469Z,3.72
2023-05-04T17:28:02.141Z,3.28
2023-05-04T17:33:03.909Z,2.90
2023-05-04T17:38:05.734Z,4.82
2023-05-04T17:43:07.647Z,3.45
2023-05-04T17:48:09.258Z,3.88
2023-05-04T17:53:11.399Z,2.40
2023-05-04T17:58:13.068Z,3.58
2023-05-04T18:03:14.730Z,2.50
2023-05-04T18:08:16.355Z,3.97
2023-05-04T18:13:18.090Z,2.55
2023-05-04T18:18:19.889Z,4.47
2023-05-04T18:23:21.686Z,3.15
2023-05-04T18:28:23.277Z,2.28
2023-05-04T18:33:31.462Z,3.63
2023-05-04T18:38:34.763Z,3.08
2023-05-04T18:43:37.785Z,4.80
2023-05-04T18:48:39.541Z,3.22
2023-05-04T18:53:41.308Z,4.68
2023-05-04T18:58:43.018Z,2.88
2023-05-04T19:03:47.620Z,2.75
2023-05-04T19:08:49.558Z,2.28
2023-05-04T19:13:51.594Z,3.08
2023-05-04T19:18:53.777Z,2.55
2023-05-04T19:23:56.119Z,3.67
2023-05-04T19:28:57.889Z,3.70
2023-05-04T19:33:59.601Z,5.40
2023-05-04T19:39:01.319Z,2.22
2023-05-04T19:44:07.910Z,11.45
2023-05-04T19:49:09.565Z,5.90
2023-05-04T19:54:11.773Z,5.85
2023-05-04T19:59:13.548Z,5.35
2023-05-04T20:04:16.027Z,10.55
2023-05-04T20:09:17.763Z,7.75
2023-05-04T20:14:19.367Z,6.45
2023-05-04T20:19:21.528Z,5.25
2023-05-04T20:24:23.144Z,5.57
2023-05-04T20:29:24.808Z,6.60
2023-05-04T20:34:26.682Z,4.35
2023-05-04T20:39:28.496Z,5.22
2023-05-04T20:44:30.312Z,11.88
2023-05-04T20:49:32.018Z,7.70
2023-05-04T20:54:33.686Z,4.75
2023-05-04T20:59:35.292Z,5.78
2023-05-04T21:04:36.967Z,4.40
2023-05-04T21:09:38.584Z,4.20
2023-05-04T21:14:40.276Z,4.78
2023-05-04T21:19:41.901Z,5.60
2023-05-04T21:24:47.174Z,4.13
2023-05-04T21:29:48.773Z,4.22
2023-05-04T21:34:52.657Z,5.10
2023-05-04T21:39:55.715Z,4.05
2023-05-04T21:44:57.809Z,3.85
2023-05-04T21:50:00.788Z,3.58
2023-05-04T21:55:02.425Z,5.35
2023-05-04T22:00:11.777Z,4.90
2023-05-04T22:05:14.089Z,4.90
2023-05-04T22:10:15.736Z,4.53
2023-05-04T22:15:17.605Z,4.45
2023-05-04T22:20:19.293Z,3.78
2023-05-04T22:25:21.024Z,3.90
2023-05-04T22:30:23.049Z,4.40
2023-05-04T22:35:24.843Z,4.82
2023-05-04T22:40:26.453Z,3.22
2023-05-04T22:45:28.079Z,5.53
2023-05-04T22:50:30.346Z,3.72
2023-05-04T22:55:32.048Z,4.78
2023-05-04T23:00:33.791Z,7.07
2023-05-04T23:05:35.633Z,5.88
2023-05-04T23:10:37.332Z,5.05
2023-05-04T23:15:39.624Z,5.15
2023-05-04T23:20:41.369Z,4.75
2023-05-04T23:25:43.123Z,5.70
2023-05-04T23:30:44.689Z,5.35
2023-05-04T23:35:46.313Z,5.40
2023-05-04T23:40:48.008Z,5.75
2023-05-04T23:45:50.526Z,8.10
2023-05-04T23:50:53.288Z,5.00
2023-05-04T23:55:59.695Z,5.35
